^^
Station Historical Data
Daily Summary for January 6, 2017 Units:  Both    English   Metric
« Previous Day
Next Day »
Daily Weekly Monthly Yearly Custom
  High: Low: Average:
Temperature: 83.1 °F /  28.4 °C 64.6 °F /  18.1 °C 73.3 °F /  22.9 °C
Dew Point: 59.5 °F /  15.3 °C 37.9 °F /  3.3 °C 50.8 °F /  10.4 °C
Humidity: 69% 28% 47%
Wind Speed: 8.9mph /  14.3km/h - 1.5mph /  2.4km/h
Wind Gust: 14.0mph /  22.5km/h - -
Wind- - SW
Pressure: 29.79 in /  1008.7 hPa 29.60 in /  1002.3 hPa -
Precipitation: 0.00 in /  0 mm    
Historical Graphs
 
 
Tabular Data for January 6, 2017
Time Temperature Dew Point Pressure Wind Wind Speed Wind Gust Humidity Rainfall Rate (Hourly) solar Conditions
00:00 69.4 °F /  20.8 °C 53.1 °F /  11.7 °C 29.65in /  1003.9hPa Calm     56% 0.00in /  0mm 0.0 W/m2
00:06 69.4 °F /  20.8 °C 53.1 °F /  11.7 °C 29.65in /  1003.9hPa Calm   1.0mph /  1.6km/h 56% 0.00in /  0mm 0.0 W/m2
00:12 69.4 °F /  20.8 °C 53.1 °F /  11.7 °C 29.64in /  1003.6hPa Calm     56% 0.00in /  0mm 0.0 W/m2
00:19 69.3 °F /  20.7 °C 52.9 °F /  11.6 °C 29.64in /  1003.6hPa Calm   1.0mph /  1.6km/h 56% 0.00in /  0mm 0.0 W/m2
00:25 69.3 °F /  20.7 °C 52.9 °F /  11.6 °C 29.64in /  1003.6hPa Calm   2.0mph /  3.2km/h 56% 0.00in /  0mm 0.0 W/m2
00:31 69.3 °F /  20.7 °C 52.9 °F /  11.6 °C 29.64in /  1003.6hPa South 2.0mph /  3.2km/h 4.0mph /  6.4km/h 56% 0.00in /  0mm 0.0 W/m2
00:37 69.4 °F /  20.8 °C 53.1 °F /  11.7 °C 29.64in /  1003.6hPa Calm   2.0mph /  3.2km/h 56% 0.00in /  0mm 0.0 W/m2
00:43 69.4 °F /  20.8 °C 53.1 °F /  11.7 °C 29.63in /  1003.3hPa Calm   1.0mph /  1.6km/h 56% 0.00in /  0mm 0.0 W/m2
00:49 69.4 °F /  20.8 °C 53.1 °F /  11.7 °C 29.63in /  1003.3hPa Calm   1.0mph /  1.6km/h 56% 0.00in /  0mm 0.0 W/m2
00:56 69.3 °F /  20.7 °C 52.9 °F /  11.6 °C 29.63in /  1003.3hPa Calm     56% 0.00in /  0mm 0.0 W/m2
01:02 69.3 °F /  20.7 °C 52.9 °F /  11.6 °C 29.63in /  1003.3hPa Calm     56% 0.00in /  0mm 0.0 W/m2
01:08 69.3 °F /  20.7 °C 52.9 °F /  11.6 °C 29.63in /  1003.3hPa Calm     56% 0.00in /  0mm 0.0 W/m2
01:14 69.3 °F /  20.7 °C 52.9 °F /  11.6 °C 29.63in /  1003.3hPa Calm   1.0mph /  1.6km/h 56% 0.00in /  0mm 0.0 W/m2
01:20 69.3 °F /  20.7 °C 52.9 °F /  11.6 °C 29.63in /  1003.3hPa Calm   1.0mph /  1.6km/h 56% 0.00in /  0mm 0.0 W/m2
01:26 69.3 °F /  20.7 °C 52.9 °F /  11.6 °C 29.63in /  1003.3hPa Calm   1.0mph /  1.6km/h 56% 0.00in /  0mm 0.0 W/m2
01:32 69.3 °F /  20.7 °C 52.9 °F /  11.6 °C 29.63in /  1003.3hPa Calm   1.0mph /  1.6km/h 56% 0.00in /  0mm 0.0 W/m2
01:39 69.3 °F /  20.7 °C 52.3 °F /  11.3 °C 29.63in /  1003.3hPa Calm   3.0mph /  4.8km/h 55% 0.00in /  0mm 0.0 W/m2
01:45 69.3 °F /  20.7 °C 52.3 °F /  11.3 °C 29.63in /  1003.3hPa Calm   1.0mph /  1.6km/h 55% 0.00in /  0mm 0.0 W/m2
01:51 69.3 °F /  20.7 °C 52.0 °F /  11.1 °C 29.63in /  1003.3hPa SE 0.9mph /  1.4km/h 4.0mph /  6.4km/h 54% 0.00in /  0mm 0.0 W/m2
01:57 69.3 °F /  20.7 °C 52.0 °F /  11.1 °C 29.63in /  1003.3hPa SSE 0.9mph /  1.4km/h 5.0mph /  8km/h 54% 0.00in /  0mm 0.0 W/m2
02:03 69.3 °F /  20.7 °C 52.0 °F /  11.1 °C 29.63in /  1003.3hPa SW 2.9mph /  4.7km/h 5.0mph /  8km/h 54% 0.00in /  0mm 0.0 W/m2
02:09 69.1 °F /  20.6 °C 51.8 °F /  11 °C 29.63in /  1003.3hPa SW 2.9mph /  4.7km/h 3.0mph /  4.8km/h 54% 0.00in /  0mm 0.0 W/m2
02:15 69.1 °F /  20.6 °C 51.8 °F /  11 °C 29.63in /  1003.3hPa Calm   2.0mph /  3.2km/h 54% 0.00in /  0mm 0.0 W/m2
02:22 68.9 °F /  20.5 °C 51.6 °F /  10.9 °C 29.63in /  1003.3hPa Calm   3.0mph /  4.8km/h 54% 0.00in /  0mm 0.0 W/m2
02:28 68.7 °F /  20.4 °C 51.4 °F /  10.8 °C 29.64in /  1003.6hPa SSE 0.9mph /  1.4km/h 2.0mph /  3.2km/h 54% 0.00in /  0mm 0.0 W/m2
02:34 68.7 °F /  20.4 °C 51.4 °F /  10.8 °C 29.63in /  1003.3hPa SSE 2.0mph /  3.2km/h 6.0mph /  9.7km/h 54% 0.00in /  0mm 0.0 W/m2
02:40 68.5 °F /  20.3 °C 51.3 °F /  10.7 °C 29.63in /  1003.3hPa SSE 2.0mph /  3.2km/h 7.0mph /  11.3km/h 54% 0.00in /  0mm 0.0 W/m2
02:46 68.4 °F /  20.2 °C 51.6 °F /  10.9 °C 29.63in /  1003.3hPa SSW 0.9mph /  1.4km/h 4.0mph /  6.4km/h 55% 0.00in /  0mm 0.0 W/m2
02:52 68.4 °F /  20.2 °C 51.6 °F /  10.9 °C 29.63in /  1003.3hPa Calm   2.0mph /  3.2km/h 55% 0.00in /  0mm 0.0 W/m2
02:58 68.2 °F /  20.1 °C 51.8 °F /  11 °C 29.63in /  1003.3hPa SW 0.9mph /  1.4km/h 1.0mph /  1.6km/h 56% 0.00in /  0mm 0.0 W/m2
03:05 68.0 °F /  20 °C 51.8 °F /  11 °C 29.63in /  1003.3hPa Calm     56% 0.00in /  0mm 0.0 W/m2
03:11 67.8 °F /  19.9 °C 52.0 °F /  11.1 °C 29.63in /  1003.3hPa Calm     57% 0.00in /  0mm 0.0 W/m2
03:17 67.8 °F /  19.9 °C 52.0 °F /  11.1 °C 29.64in /  1003.6hPa Calm     57% 0.00in /  0mm 0.0 W/m2
03:23 67.8 °F /  19.9 °C 52.0 °F /  11.1 °C 29.64in /  1003.6hPa Calm   1.0mph /  1.6km/h 57% 0.00in /  0mm 0.0 W/m2
03:29 67.8 °F /  19.9 °C 52.0 °F /  11.1 °C 29.64in /  1003.6hPa WSW 0.9mph /  1.4km/h 2.0mph /  3.2km/h 57% 0.00in /  0mm 0.0 W/m2
03:35 67.8 °F /  19.9 °C 52.5 °F /  11.4 °C 29.63in /  1003.3hPa Calm   2.0mph /  3.2km/h 58% 0.00in /  0mm 0.0 W/m2
03:42 67.8 °F /  19.9 °C 53.4 °F /  11.9 °C 29.64in /  1003.6hPa Calm   1.0mph /  1.6km/h 60% 0.00in /  0mm 0.0 W/m2
03:48 67.6 °F /  19.8 °C 53.2 °F /  11.8 °C 29.63in /  1003.3hPa Calm     60% 0.00in /  0mm 0.0 W/m2
03:54 67.6 °F /  19.8 °C 52.9 °F /  11.6 °C 29.63in /  1003.3hPa Calm     59% 0.00in /  0mm 0.0 W/m2
04:00 67.5 °F /  19.7 °C 53.1 °F /  11.7 °C 29.63in /  1003.3hPa Calm     60% 0.00in /  0mm 0.0 W/m2
04:06 67.5 °F /  19.7 °C 53.6 °F /  12 °C 29.63in /  1003.3hPa Calm   1.0mph /  1.6km/h 61% 0.00in /  0mm 0.0 W/m2
04:12 67.5 °F /  19.7 °C 54.5 °F /  12.5 °C 29.63in /  1003.3hPa Calm     63% 0.00in /  0mm 0.0 W/m2
04:18 67.3 °F /  19.6 °C 54.7 °F /  12.6 °C 29.63in /  1003.3hPa NW 0.9mph /  1.4km/h 2.0mph /  3.2km/h 64% 0.00in /  0mm 0.0 W/m2
04:24 66.9 °F /  19.4 °C 54.3 °F /  12.4 °C 29.64in /  1003.6hPa Calm   2.0mph /  3.2km/h 64% 0.00in /  0mm 0.0 W/m2
04:30 66.7 °F /  19.3 °C 53.8 °F /  12.1 °C 29.64in /  1003.6hPa NW 0.9mph /  1.4km/h 1.0mph /  1.6km/h 63% 0.00in /  0mm 0.0 W/m2
04:37 66.6 °F /  19.2 °C 53.6 °F /  12 °C 29.64in /  1003.6hPa NNW 0.9mph /  1.4km/h 3.0mph /  4.8km/h 63% 0.00in /  0mm 0.0 W/m2
04:43 66.4 °F /  19.1 °C 53.8 °F /  12.1 °C 29.64in /  1003.6hPa Calm   2.0mph /  3.2km/h 64% 0.00in /  0mm 0.0 W/m2
04:49 66.0 °F /  18.9 °C 53.4 °F /  11.9 °C 29.63in /  1003.3hPa Calm   2.0mph /  3.2km/h 64% 0.00in /  0mm 0.0 W/m2
04:55 65.8 °F /  18.8 °C 53.2 °F /  11.8 °C 29.63in /  1003.3hPa Calm   2.0mph /  3.2km/h 64% 0.00in /  0mm 0.0 W/m2
05:01 65.7 °F /  18.7 °C 53.6 °F /  12 °C 29.64in /  1003.6hPa Calm   3.0mph /  4.8km/h 65% 0.00in /  0mm 0.0 W/m2
05:07 65.5 °F /  18.6 °C 53.4 °F /  11.9 °C 29.63in /  1003.3hPa Calm   1.0mph /  1.6km/h 65% 0.00in /  0mm 0.0 W/m2
05:13 65.3 °F /  18.5 °C 53.2 °F /  11.8 °C 29.64in /  1003.6hPa North 2.9mph /  4.7km/h 3.0mph /  4.8km/h 65% 0.00in /  0mm 0.0 W/m2
05:19 65.1 °F /  18.4 °C 53.4 °F /  11.9 °C 29.64in /  1003.6hPa Calm     66% 0.00in /  0mm 0.0 W/m2
05:25 64.9 °F /  18.3 °C 53.2 °F /  11.8 °C 29.64in /  1003.6hPa Calm   1.0mph /  1.6km/h 66% 0.00in /  0mm 0.0 W/m2
05:32 64.9 °F /  18.3 °C 53.8 °F /  12.1 °C 29.64in /  1003.6hPa NNW 0.9mph /  1.4km/h 1.0mph /  1.6km/h 67% 0.00in /  0mm 0.0 W/m2
05:38 64.8 °F /  18.2 °C 54.0 °F /  12.2 °C 29.64in /  1003.6hPa Calm     68% 0.00in /  0mm 0.0 W/m2
05:44 64.8 °F /  18.2 °C 54.0 °F /  12.2 °C 29.64in /  1003.6hPa Calm     68% 0.00in /  0mm 0.0 W/m2
05:50 64.8 °F /  18.2 °C 54.0 °F /  12.2 °C 29.64in /  1003.6hPa Calm     68% 0.00in /  0mm 0.0 W/m2
05:56 64.6 °F /  18.1 °C 53.8 °F /  12.1 °C 29.64in /  1003.6hPa Calm     68% 0.00in /  0mm 0.0 W/m2
06:02 64.6 °F /  18.1 °C 54.1 °F /  12.3 °C 29.64in /  1003.6hPa Calm     69% 0.00in /  0mm 0.0 W/m2
06:08 64.6 °F /  18.1 °C 54.1 °F /  12.3 °C 29.65in /  1003.9hPa Calm     69% 0.00in /  0mm 0.0 W/m2
06:14 64.6 °F /  18.1 °C 54.1 °F /  12.3 °C 29.65in /  1003.9hPa Calm     69% 0.00in /  0mm 0.0 W/m2
06:21 64.6 °F /  18.1 °C 53.8 °F /  12.1 °C 29.65in /  1003.9hPa Calm     68% 0.00in /  0mm 0.0 W/m2
06:27 64.6 °F /  18.1 °C 54.1 °F /  12.3 °C 29.65in /  1003.9hPa Calm     69% 0.00in /  0mm 5.0 W/m2
06:33 64.6 °F /  18.1 °C 54.1 °F /  12.3 °C 29.66in /  1004.3hPa Calm   2.0mph /  3.2km/h 69% 0.00in /  0mm 7.0 W/m2
06:39 64.6 °F /  18.1 °C 54.1 °F /  12.3 °C 29.66in /  1004.3hPa Calm   2.0mph /  3.2km/h 69% 0.00in /  0mm 16.0 W/m2
06:45 64.6 °F /  18.1 °C 53.8 °F /  12.1 °C 29.66in /  1004.3hPa Calm   1.0mph /  1.6km/h 68% 0.00in /  0mm 21.0 W/m2
06:51 64.6 °F /  18.1 °C 54.1 °F /  12.3 °C 29.67in /  1004.6hPa Calm   1.0mph /  1.6km/h 69% 0.00in /  0mm 28.0 W/m2
06:57 64.6 °F /  18.1 °C 53.8 °F /  12.1 °C 29.67in /  1004.6hPa North 0.9mph /  1.4km/h 3.0mph /  4.8km/h 68% 0.00in /  0mm 42.0 W/m2
07:03 64.6 °F /  18.1 °C 53.8 °F /  12.1 °C 29.66in /  1004.3hPa Calm   3.0mph /  4.8km/h 68% 0.00in /  0mm 56.0 W/m2
07:09 64.8 °F /  18.2 °C 54.0 °F /  12.2 °C 29.67in /  1004.6hPa NNW 0.9mph /  1.4km/h 1.0mph /  1.6km/h 68% 0.00in /  0mm 67.0 W/m2
07:16 64.8 °F /  18.2 °C 54.0 °F /  12.2 °C 29.67in /  1004.6hPa NNW 0.9mph /  1.4km/h 4.0mph /  6.4km/h 68% 0.00in /  0mm 77.0 W/m2
07:22 64.8 °F /  18.2 °C 54.0 °F /  12.2 °C 29.67in /  1004.6hPa NNW 2.0mph /  3.2km/h 3.0mph /  4.8km/h 68% 0.00in /  0mm 83.0 W/m2
07:28 64.9 °F /  18.3 °C 54.1 °F /  12.3 °C 29.67in /  1004.6hPa Calm   4.0mph /  6.4km/h 68% 0.00in /  0mm 86.0 W/m2
07:34 65.1 °F /  18.4 °C 54.3 °F /  12.4 °C 29.68in /  1005hPa NW 2.0mph /  3.2km/h 3.0mph /  4.8km/h 68% 0.00in /  0mm 93.0 W/m2
07:40 65.3 °F /  18.5 °C 54.1 °F /  12.3 °C 29.68in /  1005hPa Calm   4.0mph /  6.4km/h 67% 0.00in /  0mm 102.0 W/m2
07:46 65.7 °F /  18.7 °C 54.3 °F /  12.4 °C 29.68in /  1005hPa West 0.9mph /  1.4km/h 2.0mph /  3.2km/h 67% 0.00in /  0mm 346.0 W/m2
07:52 66.0 °F /  18.9 °C 54.3 °F /  12.4 °C 29.69in /  1005.3hPa Calm   2.0mph /  3.2km/h 66% 0.00in /  0mm 283.0 W/m2
07:59 66.6 °F /  19.2 °C 54.5 °F /  12.5 °C 29.69in /  1005.3hPa NNW 2.9mph /  4.7km/h 5.0mph /  8km/h 65% 0.00in /  0mm 134.0 W/m2
08:05 66.9 °F /  19.4 °C 54.0 °F /  12.2 °C 29.69in /  1005.3hPa Calm   3.0mph /  4.8km/h 63% 0.00in /  0mm 88.0 W/m2
08:11 66.9 °F /  19.4 °C 54.3 °F /  12.4 °C 29.69in /  1005.3hPa NW 0.9mph /  1.4km/h 2.0mph /  3.2km/h 64% 0.00in /  0mm 141.0 W/m2
08:17 67.5 °F /  19.7 °C 54.5 °F /  12.5 °C 29.70in /  1005.6hPa NNW 2.9mph /  4.7km/h 4.0mph /  6.4km/h 63% 0.00in /  0mm 381.0 W/m2
08:23 68.5 °F /  20.3 °C 54.5 °F /  12.5 °C 29.70in /  1005.6hPa NNW 4.0mph /  6.4km/h 5.0mph /  8km/h 61% 0.00in /  0mm 457.0 W/m2
08:29 69.3 °F /  20.7 °C 54.3 °F /  12.4 °C 29.70in /  1005.6hPa Calm   3.0mph /  4.8km/h 59% 0.00in /  0mm 432.0 W/m2
08:35 70.0 °F /  21.1 °C 54.5 °F /  12.5 °C 29.70in /  1005.6hPa NW 2.0mph /  3.2km/h 4.0mph /  6.4km/h 58% 0.00in /  0mm 466.0 W/m2
08:41 70.3 °F /  21.3 °C 54.9 °F /  12.7 °C 29.70in /  1005.6hPa NW 4.0mph /  6.4km/h 4.0mph /  6.4km/h 58% 0.00in /  0mm 483.0 W/m2
08:47 71.1 °F /  21.7 °C 54.5 °F /  12.5 °C 29.70in /  1005.6hPa Calm   4.0mph /  6.4km/h 56% 0.00in /  0mm 540.0 W/m2
08:54 71.2 °F /  21.8 °C 55.2 °F /  12.9 °C 29.70in /  1005.6hPa Calm   1.0mph /  1.6km/h 57% 0.00in /  0mm 561.0 W/m2
09:00 71.6 °F /  22 °C 55.0 °F /  12.8 °C 29.70in /  1005.6hPa NE 0.9mph /  1.4km/h 4.0mph /  6.4km/h 56% 0.00in /  0mm 589.0 W/m2
09:06 71.8 °F /  22.1 °C 54.7 °F /  12.6 °C 29.70in /  1005.6hPa Calm   3.0mph /  4.8km/h 55% 0.00in /  0mm 601.0 W/m2
09:12 72.0 °F /  22.2 °C 54.9 °F /  12.7 °C 29.70in /  1005.6hPa Calm   1.0mph /  1.6km/h 55% 0.00in /  0mm 629.0 W/m2
09:18 72.3 °F /  22.4 °C 54.7 °F /  12.6 °C 29.70in /  1005.6hPa Calm   1.0mph /  1.6km/h 54% 0.00in /  0mm 643.0 W/m2
09:24 72.5 °F /  22.5 °C 54.3 °F /  12.4 °C 29.70in /  1005.6hPa NNW 2.0mph /  3.2km/h 4.0mph /  6.4km/h 53% 0.00in /  0mm 663.0 W/m2
09:30 72.9 °F /  22.7 °C 54.7 °F /  12.6 °C 29.70in /  1005.6hPa NW 2.9mph /  4.7km/h 5.0mph /  8km/h 53% 0.00in /  0mm 689.0 W/m2
09:36 73.6 °F /  23.1 °C 54.9 °F /  12.7 °C 29.70in /  1005.6hPa WNW 2.0mph /  3.2km/h 5.0mph /  8km/h 52% 0.00in /  0mm 649.0 W/m2
09:42 73.9 °F /  23.3 °C 55.2 °F /  12.9 °C 29.70in /  1005.6hPa West 2.0mph /  3.2km/h 2.0mph /  3.2km/h 52% 0.00in /  0mm 705.0 W/m2
09:48 74.5 °F /  23.6 °C 55.2 °F /  12.9 °C 29.70in /  1005.6hPa WSW 0.9mph /  1.4km/h 2.0mph /  3.2km/h 51% 0.00in /  0mm 742.0 W/m2
09:54 75.4 °F /  24.1 °C 54.9 °F /  12.7 °C 29.70in /  1005.6hPa North 0.9mph /  1.4km/h 4.0mph /  6.4km/h 49% 0.00in /  0mm 773.0 W/m2
10:00 76.3 °F /  24.6 °C 55.2 °F /  12.9 °C 29.70in /  1005.6hPa Calm   4.0mph /  6.4km/h 48% 0.00in /  0mm 782.0 W/m2
10:06 77.0 °F /  25 °C 54.7 °F /  12.6 °C 29.69in /  1005.3hPa West 0.9mph /  1.4km/h 6.0mph /  9.7km/h 46% 0.00in /  0mm 791.0 W/m2
10:12 76.8 °F /  24.9 °C 54.5 °F /  12.5 °C 29.69in /  1005.3hPa SW 2.9mph /  4.7km/h 3.0mph /  4.8km/h 46% 0.00in /  0mm 824.0 W/m2
10:18 76.8 °F /  24.9 °C 55.0 °F /  12.8 °C 29.69in /  1005.3hPa West 2.0mph /  3.2km/h 7.0mph /  11.3km/h 47% 0.00in /  0mm 838.0 W/m2
10:26 77.4 °F /  25.2 °C 55.6 °F /  13.1 °C 29.69in /  1005.3hPa WSW 0.9mph /  1.4km/h 3.0mph /  4.8km/h 47% 0.00in /  0mm 865.0 W/m2
10:32 78.3 °F /  25.7 °C 55.2 °F /  12.9 °C 29.69in /  1005.3hPa Calm   5.0mph /  8km/h 45% 0.00in /  0mm 875.0 W/m2
10:38 79.0 °F /  26.1 °C 55.2 °F /  12.9 °C 29.69in /  1005.3hPa West 4.0mph /  6.4km/h 8.0mph /  12.9km/h 44% 0.00in /  0mm 900.0 W/m2
10:44 79.2 °F /  26.2 °C 54.7 °F /  12.6 °C 29.68in /  1005hPa NNW 0.9mph /  1.4km/h 4.0mph /  6.4km/h 43% 0.00in /  0mm 921.0 W/m2
10:52 80.1 °F /  26.7 °C 54.9 °F /  12.7 °C 29.68in /  1005hPa NNW 2.0mph /  3.2km/h 5.0mph /  8km/h 42% 0.00in /  0mm 939.0 W/m2
10:58 80.6 °F /  27 °C 55.4 °F /  13 °C 29.68in /  1005hPa West 4.9mph /  7.9km/h 6.0mph /  9.7km/h 42% 0.00in /  0mm 981.0 W/m2
11:04 80.8 °F /  27.1 °C 54.9 °F /  12.7 °C 29.68in /  1005hPa WNW 2.0mph /  3.2km/h 7.0mph /  11.3km/h 41% 0.00in /  0mm 229.0 W/m2
11:10 80.4 °F /  26.9 °C 54.5 °F /  12.5 °C 29.68in /  1005hPa West 2.0mph /  3.2km/h 5.0mph /  8km/h 41% 0.00in /  0mm 1104.0 W/m2
11:18 81.0 °F /  27.2 °C 55.0 °F /  12.8 °C 29.68in /  1005hPa Calm   2.0mph /  3.2km/h 41% 0.00in /  0mm 209.0 W/m2
11:24 80.8 °F /  27.1 °C 54.1 °F /  12.3 °C 29.68in /  1005hPa WSW 2.9mph /  4.7km/h 9.0mph /  14.5km/h 40% 0.00in /  0mm 295.0 W/m2
11:30 80.1 °F /  26.7 °C 54.3 °F /  12.4 °C 29.68in /  1005hPa Calm   3.0mph /  4.8km/h 41% 0.00in /  0mm 320.0 W/m2
11:36 80.4 °F /  26.9 °C 54.5 °F /  12.5 °C 29.68in /  1005hPa Calm   2.0mph /  3.2km/h 41% 0.00in /  0mm 1172.0 W/m2
11:42 81.3 °F /  27.4 °C 54.7 °F /  12.6 °C 29.68in /  1005hPa West 0.9mph /  1.4km/h 2.0mph /  3.2km/h 40% 0.00in /  0mm 636.0 W/m2
11:48 81.3 °F /  27.4 °C 55.4 °F /  13 °C 29.68in /  1005hPa Calm   3.0mph /  4.8km/h 41% 0.00in /  0mm 251.0 W/m2
11:54 81.0 °F /  27.2 °C 55.8 °F /  13.2 °C 29.68in /  1005hPa Calm   1.0mph /  1.6km/h 42% 0.00in /  0mm 200.0 W/m2
12:00 80.2 °F /  26.8 °C 54.3 °F /  12.4 °C 29.68in /  1005hPa SW 2.0mph /  3.2km/h 7.0mph /  11.3km/h 41% 0.00in /  0mm 169.0 W/m2
12:06 79.9 °F /  26.6 °C 55.4 °F /  13 °C 29.67in /  1004.6hPa SW 0.9mph /  1.4km/h 2.0mph /  3.2km/h 43% 0.00in /  0mm 165.0 W/m2
12:12 79.5 °F /  26.4 °C 54.5 °F /  12.5 °C 29.68in /  1005hPa WSW 0.9mph /  1.4km/h 7.0mph /  11.3km/h 42% 0.00in /  0mm 178.0 W/m2
12:18 79.2 °F /  26.2 °C 54.7 °F /  12.6 °C 29.68in /  1005hPa WSW 0.9mph /  1.4km/h 2.0mph /  3.2km/h 43% 0.00in /  0mm 202.0 W/m2
12:24 78.6 °F /  25.9 °C 53.6 °F /  12 °C 29.68in /  1005hPa SW 0.9mph /  1.4km/h 3.0mph /  4.8km/h 42% 0.00in /  0mm 213.0 W/m2
12:30 78.4 °F /  25.8 °C 54.1 °F /  12.3 °C 29.68in /  1005hPa Calm   4.0mph /  6.4km/h 43% 0.00in /  0mm 216.0 W/m2
12:36 78.3 °F /  25.7 °C 54.5 °F /  12.5 °C 29.67in /  1004.6hPa SW 4.0mph /  6.4km/h 4.0mph /  6.4km/h 44% 0.00in /  0mm 209.0 W/m2
12:42 78.1 °F /  25.6 °C 59.5 °F /  15.3 °C 29.67in /  1004.6hPa West 2.9mph /  4.7km/h 4.0mph /  6.4km/h 53% 0.00in /  0mm 202.0 W/m2
12:48 77.4 °F /  25.2 °C 57.7 °F /  14.3 °C 29.67in /  1004.6hPa Calm   3.0mph /  4.8km/h 51% 0.00in /  0mm 213.0 W/m2
12:54 77.2 °F /  25.1 °C 56.5 °F /  13.6 °C 29.67in /  1004.6hPa SW 0.9mph /  1.4km/h 2.0mph /  3.2km/h 49% 0.00in /  0mm 225.0 W/m2
13:00 77.4 °F /  25.2 °C 55.0 °F /  12.8 °C 29.67in /  1004.6hPa Calm   3.0mph /  4.8km/h 46% 0.00in /  0mm 258.0 W/m2
13:06 77.5 °F /  25.3 °C 55.0 °F /  12.8 °C 29.67in /  1004.6hPa Calm     46% 0.00in /  0mm 302.0 W/m2
13:12 78.1 °F /  25.6 °C 54.3 °F /  12.4 °C 29.67in /  1004.6hPa Calm   1.0mph /  1.6km/h 44% 0.00in /  0mm 313.0 W/m2
13:18 78.4 °F /  25.8 °C 54.7 °F /  12.6 °C 29.67in /  1004.6hPa ENE 2.0mph /  3.2km/h 3.0mph /  4.8km/h 44% 0.00in /  0mm 322.0 W/m2
13:24 79.0 °F /  26.1 °C 54.5 °F /  12.5 °C 29.67in /  1004.6hPa Calm   1.0mph /  1.6km/h 43% 0.00in /  0mm 348.0 W/m2
13:30 79.3 °F /  26.3 °C 55.6 °F /  13.1 °C 29.67in /  1004.6hPa SE 2.0mph /  3.2km/h 5.0mph /  8km/h 44% 0.00in /  0mm 339.0 W/m2
13:36 79.9 °F /  26.6 °C 54.1 °F /  12.3 °C 29.67in /  1004.6hPa Calm   4.0mph /  6.4km/h 41% 0.00in /  0mm 373.0 W/m2
13:42 80.2 °F /  26.8 °C 55.0 °F /  12.8 °C 29.67in /  1004.6hPa SSE 4.0mph /  6.4km/h 5.0mph /  8km/h 42% 0.00in /  0mm 413.0 W/m2
13:48 80.6 °F /  27 °C 54.0 °F /  12.2 °C 29.66in /  1004.3hPa Calm   4.0mph /  6.4km/h 40% 0.00in /  0mm 399.0 W/m2
13:54 80.8 °F /  27.1 °C 54.1 °F /  12.3 °C 29.67in /  1004.6hPa Calm   7.0mph /  11.3km/h 40% 0.00in /  0mm 353.0 W/m2
14:00 80.8 °F /  27.1 °C 54.1 °F /  12.3 °C 29.66in /  1004.3hPa SSE 4.9mph /  7.9km/h 7.0mph /  11.3km/h 40% 0.00in /  0mm 345.0 W/m2
14:06 80.8 °F /  27.1 °C 54.1 °F /  12.3 °C 29.66in /  1004.3hPa SE 2.0mph /  3.2km/h 4.0mph /  6.4km/h 40% 0.00in /  0mm 325.0 W/m2
14:12 80.8 °F /  27.1 °C 53.6 °F /  12 °C 29.66in /  1004.3hPa ESE 4.0mph /  6.4km/h 7.0mph /  11.3km/h 39% 0.00in /  0mm 371.0 W/m2
14:18 80.8 °F /  27.1 °C 54.1 °F /  12.3 °C 29.65in /  1003.9hPa Calm   6.0mph /  9.7km/h 40% 0.00in /  0mm 327.0 W/m2
14:24 81.0 °F /  27.2 °C 53.6 °F /  12 °C 29.65in /  1003.9hPa SSE 0.9mph /  1.4km/h 5.0mph /  8km/h 39% 0.00in /  0mm 301.0 W/m2
14:30 81.0 °F /  27.2 °C 54.3 °F /  12.4 °C 29.65in /  1003.9hPa ESE 2.9mph /  4.7km/h 5.0mph /  8km/h 40% 0.00in /  0mm 285.0 W/m2
14:36 81.0 °F /  27.2 °C 53.6 °F /  12 °C 29.65in /  1003.9hPa SSE 4.0mph /  6.4km/h 7.0mph /  11.3km/h 39% 0.00in /  0mm 262.0 W/m2
14:42 80.8 °F /  27.1 °C 54.1 °F /  12.3 °C 29.65in /  1003.9hPa SW 2.0mph /  3.2km/h 5.0mph /  8km/h 40% 0.00in /  0mm 234.0 W/m2
14:48 80.4 °F /  26.9 °C 54.0 °F /  12.2 °C 29.64in /  1003.6hPa SE 2.0mph /  3.2km/h 4.0mph /  6.4km/h 40% 0.00in /  0mm 227.0 W/m2
14:54 80.4 °F /  26.9 °C 53.2 °F /  11.8 °C 29.64in /  1003.6hPa South 2.9mph /  4.7km/h 3.0mph /  4.8km/h 39% 0.00in /  0mm 225.0 W/m2
15:00 80.4 °F /  26.9 °C 54.0 °F /  12.2 °C 29.64in /  1003.6hPa Calm   2.0mph /  3.2km/h 40% 0.00in /  0mm 211.0 W/m2
15:06 80.2 °F /  26.8 °C 54.3 °F /  12.4 °C 29.63in /  1003.3hPa SSW 0.9mph /  1.4km/h 3.0mph /  4.8km/h 41% 0.00in /  0mm 202.0 W/m2
15:12 80.1 °F /  26.7 °C 53.6 °F /  12 °C 29.63in /  1003.3hPa East 2.0mph /  3.2km/h 4.0mph /  6.4km/h 40% 0.00in /  0mm 188.0 W/m2
15:18 80.2 °F /  26.8 °C 54.3 °F /  12.4 °C 29.63in /  1003.3hPa Calm   3.0mph /  4.8km/h 41% 0.00in /  0mm 185.0 W/m2
15:24 80.2 °F /  26.8 °C 54.3 °F /  12.4 °C 29.63in /  1003.3hPa Calm   1.0mph /  1.6km/h 41% 0.00in /  0mm 221.0 W/m2
15:30 80.4 °F /  26.9 °C 52.5 °F /  11.4 °C 29.62in /  1002.9hPa Calm     38% 0.00in /  0mm 487.0 W/m2
15:36 81.1 °F /  27.3 °C 53.8 °F /  12.1 °C 29.62in /  1002.9hPa SE 0.9mph /  1.4km/h 2.0mph /  3.2km/h 39% 0.00in /  0mm 346.0 W/m2
15:42 81.7 °F /  27.6 °C 54.3 °F /  12.4 °C 29.62in /  1002.9hPa SSE 2.0mph /  3.2km/h 4.0mph /  6.4km/h 39% 0.00in /  0mm 352.0 W/m2
15:48 82.4 °F /  28 °C 53.6 °F /  12 °C 29.62in /  1002.9hPa ESE 2.9mph /  4.7km/h 3.0mph /  4.8km/h 37% 0.00in /  0mm 397.0 W/m2
15:55 82.9 °F /  28.3 °C 54.0 °F /  12.2 °C 29.61in /  1002.6hPa Calm   4.0mph /  6.4km/h 37% 0.00in /  0mm 520.0 W/m2
16:01 83.1 °F /  28.4 °C 54.1 °F /  12.3 °C 29.61in /  1002.6hPa SE 2.0mph /  3.2km/h 3.0mph /  4.8km/h 37% 0.00in /  0mm 288.0 W/m2
16:09 82.8 °F /  28.2 °C 53.8 °F /  12.1 °C 29.61in /  1002.6hPa SSE 2.9mph /  4.7km/h 4.0mph /  6.4km/h 37% 0.00in /  0mm 281.0 W/m2
16:17 82.8 °F /  28.2 °C 53.1 °F /  11.7 °C 29.61in /  1002.6hPa SE 2.0mph /  3.2km/h 4.0mph /  6.4km/h 36% 0.00in /  0mm 301.0 W/m2
16:23 82.9 °F /  28.3 °C 53.2 °F /  11.8 °C 29.61in /  1002.6hPa ENE 0.9mph /  1.4km/h 4.0mph /  6.4km/h 36% 0.00in /  0mm 267.0 W/m2
16:29 83.1 °F /  28.4 °C 52.7 °F /  11.5 °C 29.61in /  1002.6hPa SE 2.0mph /  3.2km/h 4.0mph /  6.4km/h 35% 0.00in /  0mm 227.0 W/m2
16:38 82.9 °F /  28.3 °C 52.5 °F /  11.4 °C 29.60in /  1002.3hPa Calm   3.0mph /  4.8km/h 35% 0.00in /  0mm 156.0 W/m2
16:44 82.8 °F /  28.2 °C 52.3 °F /  11.3 °C 29.60in /  1002.3hPa SSE 2.0mph /  3.2km/h 4.0mph /  6.4km/h 35% 0.00in /  0mm 123.0 W/m2
16:50 82.2 °F /  27.9 °C 52.5 °F /  11.4 °C 29.61in /  1002.6hPa Calm   2.0mph /  3.2km/h 36% 0.00in /  0mm 107.0 W/m2
16:56 81.9 °F /  27.7 °C 53.8 °F /  12.1 °C 29.61in /  1002.6hPa SW 2.0mph /  3.2km/h 4.0mph /  6.4km/h 38% 0.00in /  0mm 90.0 W/m2
17:02 81.1 °F /  27.3 °C 53.1 °F /  11.7 °C 29.61in /  1002.6hPa SSW 2.0mph /  3.2km/h 6.0mph /  9.7km/h 38% 0.00in /  0mm 81.0 W/m2
17:08 80.8 °F /  27.1 °C 53.6 °F /  12 °C 29.62in /  1002.9hPa SW 2.0mph /  3.2km/h 10.0mph /  16.1km/h 39% 0.00in /  0mm 86.0 W/m2
17:14 80.1 °F /  26.7 °C 53.6 °F /  12 °C 29.62in /  1002.9hPa South 2.9mph /  4.7km/h 10.0mph /  16.1km/h 40% 0.00in /  0mm 91.0 W/m2
17:21 79.9 °F /  26.6 °C 52.7 °F /  11.5 °C 29.62in /  1002.9hPa SSE 0.9mph /  1.4km/h 6.0mph /  9.7km/h 39% 0.00in /  0mm 104.0 W/m2
17:26 79.9 °F /  26.6 °C 53.4 °F /  11.9 °C 29.62in /  1002.9hPa SSE 4.0mph /  6.4km/h 8.0mph /  12.9km/h 40% 0.00in /  0mm 156.0 W/m2
17:35 80.2 °F /  26.8 °C 53.1 °F /  11.7 °C 29.62in /  1002.9hPa SE 2.9mph /  4.7km/h 7.0mph /  11.3km/h 39% 0.00in /  0mm 487.0 W/m2
17:41 81.1 °F /  27.3 °C 53.1 °F /  11.7 °C 29.62in /  1002.9hPa SSW 4.0mph /  6.4km/h 9.0mph /  14.5km/h 38% 0.00in /  0mm 420.0 W/m2
17:47 81.5 °F /  27.5 °C 52.7 °F /  11.5 °C 29.63in /  1003.3hPa SSW 2.9mph /  4.7km/h 8.0mph /  12.9km/h 37% 0.00in /  0mm 355.0 W/m2
17:53 81.9 °F /  27.7 °C 51.4 °F /  10.8 °C 29.63in /  1003.3hPa SW 6.9mph /  11.1km/h 9.0mph /  14.5km/h 35% 0.00in /  0mm 396.0 W/m2
17:59 82.0 °F /  27.8 °C 50.9 °F /  10.5 °C 29.64in /  1003.6hPa SSW 2.9mph /  4.7km/h 11.0mph /  17.7km/h 34% 0.00in /  0mm 352.0 W/m2
18:05 81.3 °F /  27.4 °C 54.7 °F /  12.6 °C 29.64in /  1003.6hPa Calm   7.0mph /  11.3km/h 40% 0.00in /  0mm 153.0 W/m2
18:11 80.8 °F /  27.1 °C 52.2 °F /  11.2 °C 29.64in /  1003.6hPa WSW 4.0mph /  6.4km/h 9.0mph /  14.5km/h 37% 0.00in /  0mm 134.0 W/m2
18:17 80.1 °F /  26.7 °C 51.4 °F /  10.8 °C 29.64in /  1003.6hPa SW 2.0mph /  3.2km/h 11.0mph /  17.7km/h 37% 0.00in /  0mm 132.0 W/m2
18:23 79.9 °F /  26.6 °C 52.0 °F /  11.1 °C 29.65in /  1003.9hPa WSW 2.9mph /  4.7km/h 10.0mph /  16.1km/h 38% 0.00in /  0mm 338.0 W/m2
18:29 80.2 °F /  26.8 °C 52.3 °F /  11.3 °C 29.65in /  1003.9hPa West 2.0mph /  3.2km/h 6.0mph /  9.7km/h 38% 0.00in /  0mm 234.0 W/m2
18:35 80.6 °F /  27 °C 52.0 °F /  11.1 °C 29.65in /  1003.9hPa SW 4.9mph /  7.9km/h 11.0mph /  17.7km/h 37% 0.00in /  0mm 183.0 W/m2
18:41 80.1 °F /  26.7 °C 46.8 °F /  8.2 °C 29.65in /  1003.9hPa SSW 6.9mph /  11.1km/h 12.0mph /  19.3km/h 31% 0.00in /  0mm 156.0 W/m2
18:47 79.5 °F /  26.4 °C 44.4 °F /  6.9 °C 29.65in /  1003.9hPa West 4.9mph /  7.9km/h 11.0mph /  17.7km/h 29% 0.00in /  0mm 69.0 W/m2
18:53 79.2 °F /  26.2 °C 43.2 °F /  6.2 °C 29.66in /  1004.3hPa WSW 6.9mph /  11.1km/h 11.0mph /  17.7km/h 28% 0.00in /  0mm 63.0 W/m2
18:59 78.6 °F /  25.9 °C 42.8 °F /  6 °C 29.67in /  1004.6hPa WSW 6.9mph /  11.1km/h 11.0mph /  17.7km/h 28% 0.00in /  0mm 72.0 W/m2
19:05 78.3 °F /  25.7 °C 42.4 °F /  5.8 °C 29.67in /  1004.6hPa SW 8.9mph /  14.3km/h 10.0mph /  16.1km/h 28% 0.00in /  0mm 46.0 W/m2
19:11 77.9 °F /  25.5 °C 43.2 °F /  6.2 °C 29.67in /  1004.6hPa WNW 0.9mph /  1.4km/h 9.0mph /  14.5km/h 29% 0.00in /  0mm 32.0 W/m2
19:17 77.5 °F /  25.3 °C 42.8 °F /  6 °C 29.68in /  1005hPa WSW 2.0mph /  3.2km/h 8.0mph /  12.9km/h 29% 0.00in /  0mm 23.0 W/m2
19:23 77.0 °F /  25 °C 41.4 °F /  5.2 °C 29.68in /  1005hPa WNW 4.0mph /  6.4km/h 11.0mph /  17.7km/h 28% 0.00in /  0mm 19.0 W/m2
19:29 76.6 °F /  24.8 °C 42.1 °F /  5.6 °C 29.69in /  1005.3hPa WSW 6.9mph /  11.1km/h 13.0mph /  20.9km/h 29% 0.00in /  0mm 16.0 W/m2
19:35 76.3 °F /  24.6 °C 41.7 °F /  5.4 °C 29.69in /  1005.3hPa WSW 6.9mph /  11.1km/h 9.0mph /  14.5km/h 29% 0.00in /  0mm 9.0 W/m2
19:41 75.9 °F /  24.4 °C 41.4 °F /  5.2 °C 29.69in /  1005.3hPa WNW 4.0mph /  6.4km/h 7.0mph /  11.3km/h 29% 0.00in /  0mm 7.0 W/m2
19:47 75.6 °F /  24.2 °C 41.0 °F /  5 °C 29.69in /  1005.3hPa WSW 4.0mph /  6.4km/h 7.0mph /  11.3km/h 29% 0.00in /  0mm 0.0 W/m2
19:53 75.4 °F /  24.1 °C 41.7 °F /  5.4 °C 29.70in /  1005.6hPa WSW 4.0mph /  6.4km/h 5.0mph /  8km/h 30% 0.00in /  0mm 0.0 W/m2
19:59 74.8 °F /  23.8 °C 41.4 °F /  5.2 °C 29.70in /  1005.6hPa West 6.0mph /  9.7km/h 7.0mph /  11.3km/h 30% 0.00in /  0mm 0.0 W/m2
20:05 74.5 °F /  23.6 °C 41.0 °F /  5 °C 29.70in /  1005.6hPa West 2.9mph /  4.7km/h 8.0mph /  12.9km/h 30% 0.00in /  0mm 0.0 W/m2
20:12 74.1 °F /  23.4 °C 39.9 °F /  4.4 °C 29.71in /  1006hPa West 6.9mph /  11.1km/h 12.0mph /  19.3km/h 29% 0.00in /  0mm 0.0 W/m2
20:18 73.8 °F /  23.2 °C 40.5 °F /  4.7 °C 29.71in /  1006hPa WSW 2.9mph /  4.7km/h 12.0mph /  19.3km/h 30% 0.00in /  0mm 0.0 W/m2
20:24 73.4 °F /  23 °C 41.0 °F /  5 °C 29.72in /  1006.3hPa WNW 0.9mph /  1.4km/h 3.0mph /  4.8km/h 31% 0.00in /  0mm 0.0 W/m2
20:30 73.0 °F /  22.8 °C 39.7 °F /  4.3 °C 29.72in /  1006.3hPa WSW 4.9mph /  7.9km/h 14.0mph /  22.5km/h 30% 0.00in /  0mm 0.0 W/m2
20:36 72.7 °F /  22.6 °C 39.4 °F /  4.1 °C 29.72in /  1006.3hPa WSW 2.9mph /  4.7km/h 9.0mph /  14.5km/h 30% 0.00in /  0mm 0.0 W/m2
20:42 72.3 °F /  22.4 °C 39.9 °F /  4.4 °C 29.73in /  1006.7hPa West 2.0mph /  3.2km/h 7.0mph /  11.3km/h 31% 0.00in /  0mm 0.0 W/m2
20:48 72.1 °F /  22.3 °C 39.9 °F /  4.4 °C 29.73in /  1006.7hPa WSW 4.0mph /  6.4km/h 7.0mph /  11.3km/h 31% 0.00in /  0mm 0.0 W/m2
20:54 72.0 °F /  22.2 °C 39.7 °F /  4.3 °C 29.73in /  1006.7hPa WSW 2.0mph /  3.2km/h 7.0mph /  11.3km/h 31% 0.00in /  0mm 0.0 W/m2
21:00 71.6 °F /  22 °C 39.4 °F /  4.1 °C 29.73in /  1006.7hPa West 2.0mph /  3.2km/h 9.0mph /  14.5km/h 31% 0.00in /  0mm 0.0 W/m2
21:06 71.4 °F /  21.9 °C 39.2 °F /  4 °C 29.74in /  1007hPa WSW 4.9mph /  7.9km/h 9.0mph /  14.5km/h 31% 0.00in /  0mm 0.0 W/m2
21:12 71.2 °F /  21.8 °C 39.0 °F /  3.9 °C 29.74in /  1007hPa WSW 2.9mph /  4.7km/h 9.0mph /  14.5km/h 31% 0.00in /  0mm 0.0 W/m2
21:18 71.1 °F /  21.7 °C 38.8 °F /  3.8 °C 29.74in /  1007hPa WSW 2.0mph /  3.2km/h 7.0mph /  11.3km/h 31% 0.00in /  0mm 0.0 W/m2
21:24 70.9 °F /  21.6 °C 39.6 °F /  4.2 °C 29.74in /  1007hPa WSW 4.0mph /  6.4km/h 5.0mph /  8km/h 32% 0.00in /  0mm 0.0 W/m2
21:30 70.9 °F /  21.6 °C 39.6 °F /  4.2 °C 29.74in /  1007hPa WSW 6.9mph /  11.1km/h 7.0mph /  11.3km/h 32% 0.00in /  0mm 0.0 W/m2
21:36 70.5 °F /  21.4 °C 38.5 °F /  3.6 °C 29.75in /  1007.3hPa WSW 2.9mph /  4.7km/h 9.0mph /  14.5km/h 31% 0.00in /  0mm 0.0 W/m2
21:42 70.3 °F /  21.3 °C 38.3 °F /  3.5 °C 29.75in /  1007.3hPa WSW 2.9mph /  4.7km/h 7.0mph /  11.3km/h 31% 0.00in /  0mm 0.0 W/m2
21:48 70.2 °F /  21.2 °C 38.1 °F /  3.4 °C 29.75in /  1007.3hPa WSW 0.9mph /  1.4km/h 9.0mph /  14.5km/h 31% 0.00in /  0mm 0.0 W/m2
21:54 70.2 °F /  21.2 °C 38.1 °F /  3.4 °C 29.76in /  1007.7hPa SSE 2.9mph /  4.7km/h 7.0mph /  11.3km/h 31% 0.00in /  0mm 0.0 W/m2
22:00 70.0 °F /  21.1 °C 37.9 °F /  3.3 °C 29.76in /  1007.7hPa West 2.0mph /  3.2km/h 7.0mph /  11.3km/h 31% 0.00in /  0mm 0.0 W/m2
22:06 69.8 °F /  21 °C 38.7 °F /  3.7 °C 29.77in /  1008hPa West 0.9mph /  1.4km/h 5.0mph /  8km/h 32% 0.00in /  0mm 0.0 W/m2
22:12 69.6 °F /  20.9 °C 38.5 °F /  3.6 °C 29.77in /  1008hPa WSW 4.0mph /  6.4km/h 7.0mph /  11.3km/h 32% 0.00in /  0mm 0.0 W/m2
22:18 69.4 °F /  20.8 °C 39.0 °F /  3.9 °C 29.77in /  1008hPa WSW 2.9mph /  4.7km/h 7.0mph /  11.3km/h 33% 0.00in /  0mm 0.0 W/m2
22:24 69.3 °F /  20.7 °C 38.8 °F /  3.8 °C 29.78in /  1008.4hPa WSW 2.9mph /  4.7km/h 8.0mph /  12.9km/h 33% 0.00in /  0mm 0.0 W/m2
22:30 69.3 °F /  20.7 °C 38.8 °F /  3.8 °C 29.78in /  1008.4hPa West 2.9mph /  4.7km/h 6.0mph /  9.7km/h 33% 0.00in /  0mm 0.0 W/m2
22:36 69.3 °F /  20.7 °C 39.7 °F /  4.3 °C 29.78in /  1008.4hPa WSW 2.0mph /  3.2km/h 7.0mph /  11.3km/h 34% 0.00in /  0mm 0.0 W/m2
22:42 69.1 °F /  20.6 °C 39.6 °F /  4.2 °C 29.78in /  1008.4hPa WNW 0.9mph /  1.4km/h 3.0mph /  4.8km/h 34% 0.00in /  0mm 0.0 W/m2
22:48 69.1 °F /  20.6 °C 40.3 °F /  4.6 °C 29.78in /  1008.4hPa Calm   2.0mph /  3.2km/h 35% 0.00in /  0mm 0.0 W/m2
22:54 69.1 °F /  20.6 °C 40.3 °F /  4.6 °C 29.78in /  1008.4hPa West 2.9mph /  4.7km/h 5.0mph /  8km/h 35% 0.00in /  0mm 0.0 W/m2
23:01 68.9 °F /  20.5 °C 40.1 °F /  4.5 °C 29.79in /  1008.7hPa Calm   1.0mph /  1.6km/h 35% 0.00in /  0mm 0.0 W/m2
23:07 68.9 °F /  20.5 °C 40.8 °F /  4.9 °C 29.79in /  1008.7hPa WSW 0.9mph /  1.4km/h 1.0mph /  1.6km/h 36% 0.00in /  0mm 0.0 W/m2
23:13 68.7 °F /  20.4 °C 40.6 °F /  4.8 °C 29.79in /  1008.7hPa Calm   1.0mph /  1.6km/h 36% 0.00in /  0mm 0.0 W/m2
23:19 68.7 °F /  20.4 °C 40.6 °F /  4.8 °C 29.79in /  1008.7hPa Calm   1.0mph /  1.6km/h 36% 0.00in /  0mm 0.0 W/m2
23:25 68.7 °F /  20.4 °C 40.6 °F /  4.8 °C 29.79in /  1008.7hPa Calm     36% 0.00in /  0mm 0.0 W/m2
23:31 68.7 °F /  20.4 °C 41.4 °F /  5.2 °C 29.79in /  1008.7hPa Calm   1.0mph /  1.6km/h 37% 0.00in /  0mm 0.0 W/m2
23:37 68.7 °F /  20.4 °C 41.4 °F /  5.2 °C 29.79in /  1008.7hPa Calm   1.0mph /  1.6km/h 37% 0.00in /  0mm 0.0 W/m2
23:43 68.7 °F /  20.4 °C 41.4 °F /  5.2 °C 29.79in /  1008.7hPa WNW 0.9mph /  1.4km/h 4.0mph /  6.4km/h 37% 0.00in /  0mm 0.0 W/m2
23:49 68.7 °F /  20.4 °C 41.4 °F /  5.2 °C 29.79in /  1008.7hPa Calm   2.0mph /  3.2km/h 37% 0.00in /  0mm 0.0 W/m2
23:55 68.7 °F /  20.4 °C 41.4 °F /  5.2 °C 29.79in /  1008.7hPa WNW 0.9mph /  1.4km/h 1.0mph /  1.6km/h 37% 0.00in /  0mm 0.0 W/m2
Olympia, Windhoek, Namibia
Compliments of Weather Underground - 3 mb